events-overview

Kinetic Sprint

 

Overall Women

Lake Anna State Park - Spotsylvania, VA 5/09/2010 10:00AM

** Results are for the private use of participants and are the Intellectual Property of Set Up Events. Unauthorized use of these results is prohibited.

Place Bib NAME CITY/STATE Rank SWIM Rank T1 Rank BIKE Rank T2 Rank RUN PENALTY TIME DQ
1153Janet DiersteinVirginia Beach VA3000:13:59600:01:43100:48:25700:00:29600:22:51 01:27:26 
2149Francesca Di SilvioWashington DC500:11:16200:01:241100:53:45100:00:17400:22:08 01:28:48 
3489Elizabeth OsburnArlington VA1200:12:13900:01:45700:52:591300:00:36200:21:34 01:29:05 
4603Kim StepienChevy Chase MD300:10:345500:02:23400:51:2013800:01:312000:24:09 01:29:55 
582Alexandra Campbell-ForteOrange VA4500:14:38300:01:35500:52:042700:00:43100:20:59 01:29:57 
6686Melanie YuArlington VA600:11:17800:01:441400:54:092000:00:38500:22:27 01:30:13 
7649Whitney WallinRichmond VA200:10:112600:02:013200:56:26500:00:28300:22:00 01:31:04 
8262Ally HamiltonHerndon VA400:11:091400:01:55900:53:251700:00:371700:24:04 01:31:08 
9672Katie WoodruffAlexandria VA900:11:541600:01:552100:54:43900:00:331200:23:25 01:32:28 
10445Christy MiddletonGlen Burnie MD8900:16:086000:02:26200:49:335000:00:561400:23:41 01:32:43 
11378Mandi LeissooWashington DC4000:14:299700:02:50300:51:023000:00:441900:24:07 01:33:10 
12384Kathy LettBurke VA3900:14:223900:02:12600:52:294600:00:521000:23:20 01:33:12 
13491Valerie OswaldCharlottesville VA100:10:102400:02:001700:54:163500:00:484700:26:10 01:33:23 
14650Katy WaltersRaleigh NC3400:14:144100:02:151200:53:4711900:01:23700:22:59 01:34:35 
1526Michelle BallinWilliamsburg VA3500:14:151500:01:551600:54:1416200:01:401500:23:48 01:35:51 
16569Anne SheehyWoodbridge VA1500:12:33700:01:441800:54:313800:00:505200:26:20 01:35:55 
17297Patricia HollandSmithfield VA6700:15:301300:01:541900:54:371900:00:381300:23:35 01:36:12 
18685Darcy YtterdahlOakton VA1600:12:521800:01:572800:55:513300:00:473100:25:09 01:36:34 
19521Stephanie ProssCulpeper VA2000:13:15400:01:352500:55:314400:00:514900:26:15 01:37:25 
20252Julie GunzenhaeuserArlington VA1100:12:099300:02:482200:54:505100:00:576900:26:56 01:37:37 
2189Deb CawthornSpringfield VA7300:15:407800:02:382600:55:464500:00:521100:23:20 01:38:14 
2276Cynthia BurnsVienna VA9900:16:353800:02:112700:55:495500:01:00800:23:00 01:38:34 
23405Mary Pat MabeusMontclair VA4300:14:329400:02:481500:54:127200:01:044800:26:12 01:38:47 
2412Katharine AndersonWashington DC7500:15:434800:02:193400:56:59     01:38:53 
2515Emily ArmstrongRockville MD10700:16:463300:02:06800:53:218900:01:123500:25:31 01:38:54 
26679Andrea WuebkerWashington DC4100:14:296400:02:262000:54:3915200:01:364100:25:50 01:38:58 
27289Julia HigginsSpringfield VA6800:15:324900:02:202300:55:1019000:01:532400:24:30 01:39:22 
28299Carol HousamanWoodbridge VA5200:14:537300:02:322900:56:0711700:01:222500:24:30 01:39:22 
29499Julie ParksAlexandria VA1700:13:083500:02:085500:59:14     01:40:00 
30260Sheila HallRockville MD5800:15:068800:02:451300:53:526600:01:027800:27:36 01:40:18 
PlaceBibNAMECITY/STATERankSWIMRankT1RankBIKERankT2RankRUNPENALTYTIMEDQ
31313Serpico JaclynEllicott City MD2700:13:511700:01:564300:57:38     01:40:19 
32206Karen FrankeVirginia Beach VA14000:17:572900:02:032400:55:245400:00:591800:24:06 01:40:26 
33665Lisa WilliamsWashington DC12600:17:2711600:02:591000:53:3414800:01:343300:25:16 01:40:48 
34661Shelley WhelptonWashington Dc DC2800:13:542700:02:016300:59:407100:01:042600:24:32 01:41:10 
35138Karly DeckerRockville MD3600:14:163400:02:075100:58:396300:01:023800:25:34 01:41:37 
36372Marie-Claude LavoieWashington DC7100:15:354600:02:183700:57:2013300:01:293400:25:20 01:42:00 
37605Angela StewartWashington DC12500:17:248300:02:403100:56:2512900:01:272100:24:09 01:42:03 
38318Kara JefferiesArlington VA8100:15:554000:02:133300:56:517000:01:045100:26:17 01:42:17 
39595Debra SpatzPort Republic MD4700:14:3914500:03:133500:57:038300:01:095000:26:16 01:42:19 
404Kanchani AlgamaWashington DC4900:14:428600:02:435000:58:3713200:01:292900:25:01 01:42:30 
41119Julia CraigWashington DC6500:15:188400:02:415900:59:258800:01:111600:24:00 01:42:33 
42635Melanie TurnerWoodbridge VA9200:16:1011700:02:594700:57:489700:01:152800:24:33 01:42:42 
43275Elizabeth HarwoodAlexandria VA7000:15:3415000:03:164000:57:225200:00:574000:25:49 01:42:56 
44500Stephanie PaulSunderland MD6200:15:132500:02:007901:01:581800:00:38900:23:12 01:43:00 
45210Patricia FriederichBlacksburg VA8600:16:055000:02:205400:59:04     01:43:37 
46207Alison FreemanVienna VA2300:13:232300:02:005700:59:2111400:01:218300:27:53 01:43:56 
47375Susie LeahyRichmond VA16300:18:345900:02:254400:57:433200:00:462700:24:32 01:43:59 
48573Heidi ShoemakerWestminster MD7600:15:466200:02:265200:58:4215700:01:383700:25:34 01:44:05 
49622Kate ThomasArlington VA2100:13:221000:01:486501:00:115800:01:0010100:28:41 01:45:01 
50225Avery GillemWilliamsburg VA2500:13:361100:01:5110301:03:192400:00:423900:25:43 01:45:09 
51400Bethany LukitschRichmond VA7400:15:4112800:03:044600:57:4613400:01:297300:27:16 01:45:14 
52223Marie GilbertWashington DC3100:14:0212200:03:009101:02:4710400:01:172300:24:29 01:45:33 
53508Mary PickeringArlington VA9800:16:342200:01:593800:57:2113700:01:309200:28:16 01:45:39 
54298Tracey HolmanRockville MD1300:12:189000:02:4512601:04:276000:01:013200:25:13 01:45:42 
55168Jennifer DunnLeesburg VA3200:14:104300:02:168101:02:208600:01:114400:26:03 01:45:58 
5644Jennifer BeatleyWinchester VA11400:17:001200:01:523000:56:1711600:01:2212600:29:34 01:46:03 
5727Jeanmarie BantzAfton VA13100:17:356300:02:266100:59:292600:00:424300:26:02 01:46:12 
5817Karen Ashbrook-BarnesVienna VA9400:16:1516900:03:323900:57:2119300:01:547200:27:14 01:46:15 
59205Sheri FrancisArlington VA7800:15:5211900:02:596000:59:266200:01:027100:27:12 01:46:29 
60123Gretchen CullenbergArlington VA10000:16:366700:02:294500:57:454700:00:5310500:28:49 01:46:30 
61517Michele PotterGermantown MD14600:18:049100:02:464200:57:3716800:01:425300:26:22 01:46:30 
PlaceBibNAMECITY/STATERankSWIMRankT1RankBIKERankT2RankRUNPENALTYTIMEDQ
62594Lisa SoronenArlington VA8200:15:574500:02:177301:01:176900:01:044600:26:08 01:46:42 
63412Kate ManolakosWashington DC6400:15:1611400:02:587701:01:3812500:01:264500:26:07 01:47:22 
64363Amy KrupkaOlney MD5000:14:452000:01:586400:59:5512000:01:2412900:29:41 01:47:40 
6519Marjorie AuerAlexandria VA4200:14:314400:02:166801:00:402100:00:3912800:29:40 01:47:44 
66279Eily HayesChevy Chase MD11900:17:1610000:02:524800:58:2415800:01:398200:27:49 01:47:57 
67385Maura LevesqueVienna VA16000:18:267200:02:314900:58:3722000:02:235500:26:25 01:48:20 
68553Marisa SantisiAshburn VA11300:16:565100:02:217801:01:511500:00:376400:26:41 01:48:24 
6914Flora AraboWashington DC11200:16:5512600:03:035300:58:505300:00:5810700:28:52 01:48:36 
70152Claire DickeyRichmond VA700:11:232100:01:5814901:05:58200:00:2111500:29:06 01:48:44 
71310Shannon IceFalls Church VA6100:15:1313500:03:096601:00:1615300:01:369900:28:35 01:48:47 
7272Michelle BuchholzLos Altos CA2200:13:233000:02:048801:02:4113900:01:3212500:29:32 01:49:09 
73660Ellen WexlerWashington DC11700:17:0611500:02:588201:02:2114000:01:323600:25:33 01:49:28 
7478Amy ButtonCentreville VA3300:14:1112700:03:0310401:03:2311500:01:227700:27:34 01:49:30 
75578Alison SimonWashington DC13900:17:516800:02:295800:59:236100:01:0110800:28:52 01:49:35 
76204Jacqueline FranchettiManhasset NY5700:15:049600:02:498901:02:441400:00:379400:28:26 01:49:37 
77296Genevieve HollandArlington VA10900:16:483200:02:056901:00:4914100:01:329700:28:33 01:49:46 
78155Erin DillonWashington DC4400:14:3713100:03:068401:02:2711100:01:2010400:28:47 01:50:14 
79264Jill HammerschmidtRockville MD5300:14:5713200:03:0612901:04:478100:01:085600:26:26 01:50:23 
80358Bethany KoetjeCulpeper VA1900:13:1310800:02:5512501:04:159300:01:1311400:29:06 01:50:39 
81684Karen YounkinsWashington DC800:11:5111800:02:5910901:03:3714400:01:3214700:30:47 01:50:44 
82261Alex HalsemaWashington DC5500:14:5920700:04:147101:01:0423800:03:486500:26:47 01:50:50 
83588Becky SmithLaurel MD10600:16:4618800:03:466200:59:383400:00:4813600:29:57 01:50:52 
84614Liza SzelkowskiAlexandria VA15900:18:234700:02:188301:02:257400:01:056600:26:51 01:51:00 
85433Jill McKennaWashington DC5400:14:5813000:03:069701:02:593600:00:4812100:29:23 01:51:13 
86339Shelley KavlickFalls Church VA16800:18:3915900:03:217601:01:2816000:01:402200:24:1300:02:0001:51:18 
87509Julia PeckCulpeper VA12800:17:28500:01:367401:01:17800:00:3214100:30:28 01:51:19 
88182Kristen FagleyWashington DC1000:12:0614000:03:1116201:07:2916900:01:436800:26:53 01:51:19 
89164Terry DrewOak Hill VA16200:18:3319000:03:477201:01:1313100:01:285900:26:30 01:51:29 
90342Julie KennedyAlexandria VA12900:17:319200:02:478001:02:079100:01:128600:28:02 01:51:39 
91486Claire OliverArlington VA14300:18:0016300:03:259401:02:558700:01:116200:26:40 01:52:09 
92518Amber PowelsonWashington Dc DC2900:13:5520500:04:1113201:04:561100:00:3410200:28:43 01:52:17 
PlaceBibNAMECITY/STATERankSWIMRankT1RankBIKERankT2RankRUNPENALTYTIMEDQ
93446Alana MillerWashington DC3700:14:1714300:03:1313901:05:219800:01:159000:28:15 01:52:19 
94388Lynette LippCharlottesville VA16600:18:388700:02:447501:01:207500:01:0711100:28:55 01:52:42 
95629Jennifer TriboNorfolk VA9600:16:2515200:03:189601:02:587700:01:0711600:29:06 01:52:52 
96161Christine DoeringDumfries VA8500:16:046900:02:2910601:03:2619700:01:5511900:29:14 01:53:07 
97443Amy MiaoNorth Potomac MD9700:16:337700:02:3811601:03:5714900:01:349600:28:30 01:53:10 
98535Dena RichardsonWashington DC10400:16:4416700:03:3111701:04:006800:01:049100:28:15 01:53:31 
99723Jackie AlvaradoRockville MD9500:16:2013700:03:1014801:05:5617200:01:445800:26:29 01:53:37 
100370Kathleen LarkinVienna VA15700:18:1812400:03:028701:02:3818100:01:498800:28:06 01:53:52 
101255Charlotte HadleyAlexandria VA6900:15:3220000:04:0511001:03:4111300:01:2112000:29:17 01:53:54 
10283Annmarie CampolattaroWilliamsburg VA20600:20:523600:02:086701:00:1613000:01:2812300:29:30 01:54:11 
103241Erin GordonReston VA8700:16:0615100:03:1713301:05:0117000:01:438900:28:13 01:54:18 
104115Laura CordesYorktown VA22500:22:514200:02:154100:57:234900:00:5615300:30:59 01:54:23 
10539Kathy BauerHerndon VA15800:18:226500:02:2711301:03:525600:01:0011200:28:58 01:54:37 
1066Kimberly AllenAlexandria VA8300:15:5918900:03:4614301:05:3711000:01:188500:28:01 01:54:40 
107455Kelli MolterArlington VA7700:15:478200:02:4012801:04:4520600:02:0512400:29:32 01:54:46 
10835Maggie BartlettBoyds MD9300:16:1419300:03:4810201:03:1812300:01:2613900:30:18 01:55:01 
109576Lillian SiegelWashington DC10300:16:4116200:03:259301:02:518200:01:0815600:31:05 01:55:08 
11090Kendra ChambersDumfries VA8400:16:0214400:03:1312201:04:127800:01:0814500:30:36 01:55:09 
111131Pamela DavisRichmond VA5600:15:022800:02:039901:03:026400:01:0220400:34:08 01:55:15 
112572Tina ShiverRichmond VA13500:17:4416400:03:277001:00:5617300:01:4416200:31:30 01:55:19 
113173Kimberly EllisVienna VA5900:15:065700:02:258601:02:3319100:01:5320100:33:42 01:55:37 
114579Whitney SimonsAlexandria VA8000:15:5315500:03:1914501:05:4817900:01:4710900:28:53 01:55:39 
115361Margot KraussKesington MD8800:16:0811300:02:5713401:05:0117500:01:4513300:29:50 01:55:39 
116641Karri VoskuhlWarrenton VA2400:13:275200:02:2116701:07:46600:00:2816900:31:42 01:55:42 
117472Crystal NeihoffFredericksburg VA14400:18:0313400:03:0915501:06:3216700:01:425400:26:23 01:55:48 
118580Mel SiroisBethesda MD16100:18:3110900:02:5515401:06:2420400:02:044200:25:59 01:55:51 
119627Christina TragleLeesburg VA13600:17:4615700:03:2010001:03:177900:01:0814400:30:36 01:56:04 
120519Lorie PreheimWashington DC14800:18:0810400:02:548501:02:2718700:01:5214800:30:48 01:56:07 
121105Elizabeth CoffeyElkton VA12400:17:2317400:03:3411101:03:452900:00:4410300:28:4300:02:0001:56:08 
122587Kjersti SmedleyWoodbridge VA4800:14:4110700:02:5417501:09:04300:00:2511800:29:10 01:56:12 
123556Jodi ScholesReston VA13000:17:3415400:03:1912701:04:3010200:01:1712700:29:39 01:56:17 
PlaceBibNAMECITY/STATERankSWIMRankT1RankBIKERankT2RankRUNPENALTYTIMEDQ
124601Alexandra StanczykWashington DC3800:14:185600:02:2414101:05:233100:00:4419800:33:30 01:56:17 
12529Valerie BarloweWarrenton VA11600:17:039500:02:4916101:07:194200:00:519300:28:20 01:56:21 
126306Emma HullyGaithersburg MD22400:22:405400:02:2213601:05:156700:01:023000:25:04 01:56:21 
127534Anne RichardsonCulpeper VA7900:15:533700:02:0919101:11:181600:00:376300:26:41 01:56:35 
12881Jody CameronWoodbridge VA17000:18:413100:02:0410501:03:257600:01:0717000:31:42 01:56:58 
129267Melissa HancockHerndon VA6000:15:127400:02:3315001:06:0212400:01:2617500:31:56 01:57:06 
130213Becky FulkersonArlington VA6300:15:1618700:03:4410701:03:2720200:02:0219000:32:48 01:57:14 
131492Carole OwenEllicott City MD11100:16:5020100:04:0512001:04:0221100:02:1313800:30:13 01:57:21 
132460Karen MoserAlexandria VA11000:16:497000:02:3014201:05:3410500:01:1717200:31:49 01:57:58 
133552Karen SanfaconHerndon VA10500:16:4621900:04:3913501:05:0418300:01:5013000:29:42 01:57:58 
13471Lone BryanWashington DC20800:20:5322300:04:455600:59:1522400:02:3114600:30:43 01:58:05 
135501Hillary PeabodyWashington DC16700:18:399900:02:5217001:07:565900:01:017900:27:39 01:58:05 
136357Lauren KoelemayArlington VA14700:18:0814800:03:1512401:04:1310000:01:1616000:31:23 01:58:13 
13797Page ChristensenHollywood MD2600:13:4321200:04:2316901:07:5412200:01:2514900:30:51 01:58:13 
138134Stephanie DeSpringfield VA18500:19:2614700:03:1416001:07:0018400:01:506700:26:52 01:58:21 
139662Lajohnne WhiteCharlottesville VA6600:15:1918100:03:4217101:07:5723300:02:5810600:28:49 01:58:43 
140371Sarah LatternerWashington DC12100:17:1817000:03:3215901:06:482200:00:4014200:30:29 01:58:45 
141546Aimee RuscioWashington DC20700:20:5212100:03:0013801:05:2019800:01:568000:27:43 01:58:49 
14266Patricia BrenesMcLean VA7200:15:3923400:05:0913701:05:1712600:01:2716600:31:37 01:59:07 
143538Jennifer RobbArlington VA19700:20:0717500:03:3414401:05:4819200:01:548100:27:47 01:59:08 
144116Ann CorranSilver Spring MD17300:18:4520800:04:1613001:04:4812800:01:2713700:30:01 01:59:15 
145466Melissa MurrayStephens City VA14100:17:5818200:03:4311501:03:5716100:01:4017700:32:00 01:59:15 
146392Laurena LiuWashington DC21200:21:2414100:03:1214701:05:5521200:02:146100:26:40 01:59:22 
147563Sheri SegalVirginia Beach VA23400:24:595800:02:2510101:03:179900:01:157500:27:31 01:59:25 
148222Katie GibbleSterling VA17500:19:0218300:03:439001:02:4422600:02:3316400:31:34 01:59:34 
149193Shanda FinniganFalls Church VA10100:16:388500:02:4117401:08:382800:00:4315800:31:16 01:59:54 
150422Lynn MattucciArlington VA17200:18:455300:02:229801:03:0122100:02:2419700:33:26 01:59:56 
151216Karen GarthAlexandria VA15200:18:138900:02:4518901:10:582300:00:427400:27:25 02:00:02 
152581Cindy SixElkridge MD1400:12:3019100:03:4719401:11:2015100:01:3515700:31:07 02:00:18 
153399Natalie LudwigSpringfield VA21700:21:5610600:02:5414001:05:2220000:01:589500:28:29 02:00:37 
154170Brooke EberlyAlexandria VA21800:22:0713600:03:0914601:05:515700:01:0010000:28:37 02:00:42 
PlaceBibNAMECITY/STATERankSWIMRankT1RankBIKERankT2RankRUNPENALTYTIMEDQ
155653Chloe WardropperWashington DC23700:25:3816600:03:2911201:03:49400:00:268400:27:59 02:01:19 
156616Nancy TangLeesburg VA18900:19:4613800:03:1010801:03:3415900:01:3919600:33:20 02:01:27 
157104Lara CoffeeBurke VA13200:17:3823200:05:0513101:04:5115500:01:3718400:32:19 02:01:27 
158259Cynthia HallWoodbridge VA22000:22:3010100:02:529501:02:5615600:01:3816300:31:33 02:01:27 
15924Stephanie BaldanziArlington VA9100:16:0919700:03:5717201:08:3510800:01:1816500:31:37 02:01:34 
160309Trudy HutchersonTakoma Park MD21500:21:3712000:03:009201:02:4917800:01:4618700:32:32 02:01:43 
161140Rebecca DeforetFort Eustis VA12000:17:1719900:04:0317801:09:2419900:01:5811300:29:04 02:01:43 
162280Jo Anne HedrickCentreville VA13800:17:471900:01:5812101:04:0310100:01:1622200:36:55 02:01:58 
163256Kerensa HadleyFairfax VA10200:16:4114600:03:1317601:09:124800:00:5517800:32:02 02:02:01 
16464Adrianne BrakefieldTakoma Park MD24200:27:226600:02:2811401:03:559200:01:137000:27:09 02:02:04 
16591Heather ChapmanMontclair VA16500:18:3615300:03:1916801:07:5213600:01:3015100:30:54 02:02:08 
166550Hala Salha FayyadRockville MD15000:18:127500:02:3418001:09:3313500:01:2914300:30:34 02:02:20 
167326Alison JonesFalls Church VA12300:17:2221500:04:2817301:08:3716500:01:4114000:30:24 02:02:31 
168322Alissa JohnsonLaurel MD9000:16:0820300:04:0916501:07:3815000:01:3519400:33:04 02:02:32 
169386Shoshana LewWashington DC18800:19:4612900:03:0618101:09:3312100:01:2511000:28:55 02:02:43 
170599Kari SprecherLeesburg VA17600:19:0421700:04:3712301:04:138500:01:1120200:33:44 02:02:46 
171677Raquel WrightWoodbridge VA15100:18:1311100:02:5618501:10:447300:01:0513500:29:57 02:02:52 
172211Suzanne FriisBrookeville MD21100:21:1713300:03:0815301:06:2011800:01:2215400:30:59 02:03:04 
173527Gwyn ReeceCrofton MD14200:17:5811000:02:5617701:09:229500:01:1417400:31:51 02:03:18 
1745Jenny AllenTakoma Park MD18600:19:3222000:04:4016401:07:3519500:01:5413100:29:48 02:03:28 
175277Maureen HawleyMechanicsville VA17900:19:188100:02:3915701:06:3922700:02:3319100:32:53 02:04:00 
17649Trisha BergmannWashington DC18700:19:3416100:03:2416601:07:3919600:01:5517300:31:50 02:04:20 
177657Stacy WellerAlexandria VA15300:18:1417800:03:3919901:11:533700:00:4913200:29:48 02:04:22 
178570Marla ShermanEllicott City MD16400:18:3615800:03:2115101:06:1318600:01:5120500:34:31 02:04:30 
179351Cecelia KirkmanStafford VA12200:17:219800:02:5119501:11:216500:01:0219300:33:01 02:05:34 
180366Sara LancasterStafford VA20900:21:0312500:03:0315801:06:4021700:02:2118600:32:32 02:05:36 
181250Stacy GroffArlington VA23100:24:4314200:03:1211801:04:0017100:01:4418200:32:08 02:05:46 
18240Sharon BaughFrederick MD21000:21:1013900:03:1116301:07:3210700:01:1818900:32:37 02:05:46 
183146Tammy DeusterSilver Spring MD10800:16:4821100:04:2018801:10:5321900:02:2116100:31:26 02:05:46 
184496Alexa PapadimosWashington DC14500:18:0419200:03:4721201:14:4610600:01:1711700:29:09 02:07:01 
185321Erica JennejahnCulpeper VA19800:20:097900:02:3915201:06:1515400:01:3722100:36:46 02:07:25 
PlaceBibNAMECITY/STATERankSWIMRankT1RankBIKERankT2RankRUNPENALTYTIMEDQ
186690Paloma ZuletaWashington DC22300:22:3721000:04:1919001:11:0319400:01:548700:28:06 02:07:58 
187646Caren WalkerFredericksburg VA18400:19:2510200:02:5223101:18:349400:01:136000:26:36 02:08:38 
188506Amy PerkinsLeesburg VA22800:23:3822200:04:4318401:10:3622200:02:247600:27:34 02:08:53 
189178Jennifer EstesFalls Church UT15400:18:1518500:03:4320301:12:5623400:03:1215200:30:55 02:08:59 
19056Jennifer BoadaAlexandria VA17100:18:4422900:05:0018301:10:2518900:01:5319500:33:05 02:09:05 
191271Lauren HardwigPittsburgh PA23900:26:0718000:03:4118201:10:151000:00:339800:28:35 02:09:09 
192364Joan KvenlogStafford VA12700:17:2719800:04:0017901:09:278000:01:0822600:37:56 02:09:56 
193532Jill RhodesAlexandria VA13400:17:4217600:03:3718701:10:5114200:01:3221800:36:27 02:10:08 
194101Kelsey ClarkFredericksburg VA20000:20:1911200:02:5718601:10:4814300:01:3220700:34:40 02:10:14 
195555Maryrose SchlegelOak Hill VA11800:17:1023300:05:0920801:13:4721500:02:1918000:32:08 02:10:30 
196461Miki MoskowitzWashington DC19100:19:577100:02:3121001:14:3517400:01:4518300:32:14 02:10:59 
197303Michelle HuangGaithersburg MD21600:21:5510300:02:5320601:13:409000:01:1217100:31:47 02:11:26 
198604Steffany SternWashington DC19300:19:5920900:04:1720501:13:2820100:01:5917600:31:57 02:11:39 
199513Karen PostlBowie MD19500:20:0423800:05:2821801:15:5924100:04:095700:26:27 02:12:05 
200246Helen GreenbackerSouth Boston VA4600:14:3917100:03:3324201:23:358400:01:1012200:29:25 02:12:20 
201319Lynsey JeffriesWashington DC5100:14:5320600:04:1423801:20:2121600:02:2017900:32:04 02:13:49 
202344Paula KergerWashington DC22900:24:1216500:03:2719201:11:184100:00:5120900:34:51 02:14:38 
203340Perrin KeelerAlexandria VA17400:18:4923000:05:0221701:15:4524200:04:1215900:31:20 02:15:07 
204637Mildred UgayArlington VA24400:27:3310500:02:5419601:11:3114500:01:3216700:31:39 02:15:07 
20542Dana BeamGlen Burnie MD23300:24:5120400:04:1021301:14:492500:00:4215500:31:00 02:15:31 
206457Meredith MorelleWashington DC20100:20:2424700:06:4721101:14:4514600:01:3219200:32:57 02:16:23 
207345Dana KernMontclair VA13700:17:477600:02:3622801:18:2416600:01:4221600:36:13 02:16:40 
208374Leanne LayneSpringfield VA19400:20:0322700:04:5020401:12:5821300:02:1622300:37:15 02:17:19 
209688Terri ZinnAlexandria VA20300:20:3518400:03:4319801:11:4016400:01:4022500:37:4600:02:0002:17:23 
210612Erin SuppleeLeesburg VA18200:19:2317200:03:3321401:15:0421800:02:2122400:37:20 02:17:40 
211377Cara LeidyWashington DC19000:19:4824300:05:4723501:19:3420800:02:0715000:30:52 02:18:06 
212557Julia SchranckRehoboth Beach DE14900:18:0821400:04:2722501:17:2220700:02:0621400:36:09 02:18:10 
213248Beth GrimeseyMechanicsville VA20500:20:5019400:03:5322601:17:2410300:01:1721200:35:53 02:19:15 
214190Robin FergusonSavannah GA23600:25:308000:02:3922301:17:0611200:01:2120000:33:39 02:20:13 
215350Tamara KinneyArlington VA19600:20:0624200:05:4223201:18:5812700:01:2720600:34:40 02:20:51 
216349Gwen KinneySpringfield VA19900:20:1824100:05:4215601:06:3518800:01:5223900:46:26 02:20:51 
PlaceBibNAMECITY/STATERankSWIMRankT1RankBIKERankT2RankRUNPENALTYTIMEDQ
217408Marie MalaveSilver Spring MD22200:22:3417300:03:3422101:16:1321000:02:0821900:36:29 02:20:55 
218630Iris TriebFalls Church VA24300:27:3124400:06:0320201:12:4722500:02:3218100:32:08 02:20:58 
219621Leslie TharpAshburn VA23800:25:4023900:05:3719701:11:3923000:02:4421100:35:36 02:21:15 
220676Dorothy WrightMontclair VA25000:30:5422800:04:5320701:13:4618500:01:5013400:29:55 02:21:16 
221543Meghan RooneyN. Bethesda MD17700:19:0721300:04:2320101:12:2922300:02:3123300:42:54 02:21:22 
222504Kathy PelechHerndon VA21400:21:3221600:04:3622401:17:0920300:02:0321700:36:23 02:21:41 
223200Tracey FordAlexandria VA15600:18:1619600:03:5620901:14:2618000:01:4723700:45:27 02:23:51 
224238Marianna GoodingMontclair VA24100:27:1622100:04:4121601:15:4214700:01:3321000:35:22 02:24:32 
225382Janice LeonardSuffolk VA20200:20:3316000:03:2222201:16:4918200:01:4923200:42:10 02:24:42 
226424Kristen McAlisterAlexandria VA18100:19:2014900:03:1623901:20:3220500:02:0422700:39:42 02:24:53 
227565Brooke ShaferHarrisonburg VA11500:17:0312300:03:0024601:29:324300:00:5120800:34:42 02:25:06 
228574Holly ShoemakerAlexandria VA21900:22:2522400:04:4621501:15:1122800:02:3422900:40:40 02:25:35 
229331Kristen JordanRichmond VA19200:19:576100:02:2623001:18:3117600:01:4523600:44:34 02:27:11 
230158Cullen DirnerWashington DC21300:21:3015600:03:1924301:23:3523500:03:1321300:35:55 02:27:31 
231308Kelly HunterFalls Church VA18000:19:2023100:05:0420001:12:244000:00:5124100:49:56 02:27:33 
232312Patti JacksonFairfax VA16900:18:3925200:15:3022001:16:1220900:02:0722000:36:31 02:28:58 
233643Cathy WagueAnnandale VA24000:26:4223600:05:1623601:19:5123700:03:4019900:33:32 02:28:59 
234584Laura SkoffVienna VA17800:19:0724000:05:4023701:20:0923600:03:2023000:40:57 02:29:11 
235438Jacquie MeriwetherArlington VA24700:28:5520200:04:0719301:11:1822900:02:4223400:43:45 02:30:46 
236383Christie LerroWashington DC22600:22:5723700:05:2122701:18:1324000:04:0822800:40:13 02:30:50 
237176Eleanor EnnisMcLean VA13300:17:4225100:09:4524001:21:0316300:01:4023100:41:45 02:31:54 
238110Christina CollWashington DC20400:20:4723500:05:1123401:19:173900:00:5023800:45:52 02:31:54 
239468Karen NakamaruFalls Church VA15500:18:1624500:06:1224801:36:2010900:01:1818800:32:36 02:34:40 
240417Cecilia MartinezAlexandria VA23000:24:2917900:03:4022901:18:2817700:01:4624000:46:34 02:34:55 
241257Vanessa HaiglerWashington DC25100:31:2322500:04:4724401:24:4421400:02:1618500:32:20 02:35:27 
242721Shannon ElySilver Sprint MD25200:35:4319500:03:5524501:26:441200:00:3520300:33:50 02:40:45 
243253Amy GuthridgeReston VA22100:22:3124900:07:1324701:30:3124300:04:2821500:36:12 02:40:52 
244583Jennifer SkalkaPotomac MD23200:24:4422600:04:5024901:39:029600:01:1416800:31:41 02:41:28 
245203Leigh FramptonAshburn VA24500:27:3418600:03:4324101:23:2323200:02:5723500:44:15 02:41:50 
246430Aj McIntyreCabin John MD24600:28:2821800:04:3921901:16:0023100:02:5024300:51:56 02:43:51 
247425Maureen McAuliffeAlexandria VA23500:25:1517700:03:3923301:19:0023900:04:0424200:51:55 02:43:52 
PlaceBibNAMECITY/STATERankSWIMRankT1RankBIKERankT2RankRUNPENALTYTIMEDQ
24850Debi BernardesKing George VA1800:13:09100:01:163600:57:06 DNF DNF DNF 
249198Karen FoerWashington DC18300:19:2316800:03:3111901:04:01 DNF DNF DNF 
250380Eugenia LeonardArlington VA24900:29:5224800:07:0325001:40:24 DNF DNF DNF 
25118Sarah AtwoodArlington VA24800:29:3125000:07:2225101:45:05 DNF DNF DNF 
252389Jamie LipseyWashington DC22700:23:2524600:06:3825201:50:48 DNF DNF DNF 

** Results are for the private use of participants and are the Intellectual Property of Set Up Events. Unauthorized use of these results is prohibited.